sensor_id;sensor_type;location;lat;lon;timestamp;P1;durP1;ratioP1;P2;durP2;ratioP2
46753;SDS011;32500;50.620;3.400;2023-03-01T00:01:08;55.67;;;47.50;;
46753;SDS011;32500;50.620;3.400;2023-03-01T00:03:36;55.43;;;47.80;;
46753;SDS011;32500;50.620;3.400;2023-03-01T00:06:03;56.03;;;47.97;;
46753;SDS011;32500;50.620;3.400;2023-03-01T00:08:29;56.97;;;48.47;;
46753;SDS011;32500;50.620;3.400;2023-03-01T00:13:33;56.47;;;47.63;;
46753;SDS011;32500;50.620;3.400;2023-03-01T00:16:04;55.40;;;47.73;;
46753;SDS011;32500;50.620;3.400;2023-03-01T00:18:31;56.37;;;48.00;;
46753;SDS011;32500;50.620;3.400;2023-03-01T00:20:56;56.17;;;47.90;;
46753;SDS011;32500;50.620;3.400;2023-03-01T00:23:22;54.77;;;47.40;;
46753;SDS011;32500;50.620;3.400;2023-03-01T00:25:48;56.77;;;47.93;;
46753;SDS011;32500;50.620;3.400;2023-03-01T00:28:14;56.23;;;47.60;;
46753;SDS011;32500;50.620;3.400;2023-03-01T00:30:40;55.70;;;47.93;;
46753;SDS011;32500;50.620;3.400;2023-03-01T00:33:06;56.73;;;48.10;;
46753;SDS011;32500;50.620;3.400;2023-03-01T00:35:32;56.38;;;47.92;;
46753;SDS011;32500;50.620;3.400;2023-03-01T00:37:58;54.90;;;47.30;;
46753;SDS011;32500;50.620;3.400;2023-03-01T00:40:25;55.15;;;47.13;;
46753;SDS011;32500;50.620;3.400;2023-03-01T00:42:55;55.85;;;47.85;;
46753;SDS011;32500;50.620;3.400;2023-03-01T00:45:20;56.97;;;48.10;;
46753;SDS011;32500;50.620;3.400;2023-03-01T00:47:47;55.53;;;47.73;;
46753;SDS011;32500;50.620;3.400;2023-03-01T00:50:14;57.13;;;48.47;;
46753;SDS011;32500;50.620;3.400;2023-03-01T00:52:39;57.13;;;47.85;;
46753;SDS011;32500;50.620;3.400;2023-03-01T00:55:05;56.67;;;48.33;;
46753;SDS011;32500;50.620;3.400;2023-03-01T00:57:31;57.15;;;47.95;;
46753;SDS011;32500;50.620;3.400;2023-03-01T00:59:58;54.92;;;47.53;;
46753;SDS011;32500;50.620;3.400;2023-03-01T01:02:24;56.45;;;47.42;;
46753;SDS011;32500;50.620;3.400;2023-03-01T01:04:50;55.90;;;47.77;;
46753;SDS011;32500;50.620;3.400;2023-03-01T01:07:16;55.35;;;47.63;;
46753;SDS011;32500;50.620;3.400;2023-03-01T01:09:42;56.15;;;48.08;;
46753;SDS011;32500;50.620;3.400;2023-03-01T01:12:08;54.47;;;47.20;;
46753;SDS011;32500;50.620;3.400;2023-03-01T01:14:34;58.37;;;48.83;;
46753;SDS011;32500;50.620;3.400;2023-03-01T01:17:00;55.30;;;47.83;;
46753;SDS011;32500;50.620;3.400;2023-03-01T01:19:26;55.70;;;47.65;;
46753;SDS011;32500;50.620;3.400;2023-03-01T01:21:51;57.17;;;47.87;;
46753;SDS011;32500;50.620;3.400;2023-03-01T01:24:18;55.37;;;47.13;;
46753;SDS011;32500;50.620;3.400;2023-03-01T01:26:44;56.57;;;48.43;;
46753;SDS011;32500;50.620;3.400;2023-03-01T01:29:10;56.13;;;48.00;;
46753;SDS011;32500;50.620;3.400;2023-03-01T01:31:37;56.63;;;48.37;;
46753;SDS011;32500;50.620;3.400;2023-03-01T01:34:06;55.35;;;47.97;;
46753;SDS011;32500;50.620;3.400;2023-03-01T01:36:32;56.80;;;48.05;;
46753;SDS011;32500;50.620;3.400;2023-03-01T01:38:59;55.33;;;47.90;;
46753;SDS011;32500;50.620;3.400;2023-03-01T01:41:25;56.40;;;47.37;;
46753;SDS011;32500;50.620;3.400;2023-03-01T01:46:37;55.47;;;47.30;;
46753;SDS011;32500;50.620;3.400;2023-03-01T01:49:07;55.57;;;47.67;;
46753;SDS011;32500;50.620;3.400;2023-03-01T01:51:47;56.00;;;47.70;;
46753;SDS011;32500;50.620;3.400;2023-03-01T01:54:20;54.97;;;47.13;;
46753;SDS011;32500;50.620;3.400;2023-03-01T01:57:00;55.77;;;47.53;;
46753;SDS011;32500;50.620;3.400;2023-03-01T01:59:31;54.83;;;47.03;;
46753;SDS011;32500;50.620;3.400;2023-03-01T02:01:59;57.57;;;47.70;;
46753;SDS011;32500;50.620;3.400;2023-03-01T02:04:26;56.23;;;47.47;;
46753;SDS011;32500;50.620;3.400;2023-03-01T02:07:14;56.40;;;47.97;;
46753;SDS011;32500;50.620;3.400;2023-03-01T02:09:48;55.07;;;47.63;;
46753;SDS011;32500;50.620;3.400;2023-03-01T02:12:16;54.33;;;47.33;;
46753;SDS011;32500;50.620;3.400;2023-03-01T02:14:44;56.73;;;47.83;;
46753;SDS011;32500;50.620;3.400;2023-03-01T02:17:11;55.47;;;47.77;;
46753;SDS011;32500;50.620;3.400;2023-03-01T02:22:32;55.13;;;47.50;;
46753;SDS011;32500;50.620;3.400;2023-03-01T02:30:41;54.77;;;47.43;;
46753;SDS011;32500;50.620;3.400;2023-03-01T02:33:31;54.30;;;47.10;;
46753;SDS011;32500;50.620;3.400;2023-03-01T02:36:01;56.10;;;48.00;;
46753;SDS011;32500;50.620;3.400;2023-03-01T02:38:35;55.10;;;47.63;;
46753;SDS011;32500;50.620;3.400;2023-03-01T02:41:01;55.57;;;47.57;;
46753;SDS011;32500;50.620;3.400;2023-03-01T02:43:30;54.37;;;47.20;;
46753;SDS011;32500;50.620;3.400;2023-03-01T02:45:58;56.77;;;48.17;;
46753;SDS011;32500;50.620;3.400;2023-03-01T02:48:26;55.97;;;47.63;;
46753;SDS011;32500;50.620;3.400;2023-03-01T02:51:01;55.93;;;47.33;;
46753;SDS011;32500;50.620;3.400;2023-03-01T02:56:31;54.80;;;47.17;;
46753;SDS011;32500;50.620;3.400;2023-03-01T02:58:56;56.10;;;47.27;;
46753;SDS011;32500;50.620;3.400;2023-03-01T03:01:25;55.83;;;47.60;;
46753;SDS011;32500;50.620;3.400;2023-03-01T03:04:05;56.28;;;47.83;;
46753;SDS011;32500;50.620;3.400;2023-03-01T03:06:32;55.00;;;47.00;;
46753;SDS011;32500;50.620;3.400;2023-03-01T03:08:58;55.17;;;47.53;;
46753;SDS011;32500;50.620;3.400;2023-03-01T03:11:25;54.77;;;47.87;;
46753;SDS011;32500;50.620;3.400;2023-03-01T03:13:51;55.57;;;47.83;;
46753;SDS011;32500;50.620;3.400;2023-03-01T03:16:17;53.70;;;46.97;;
46753;SDS011;32500;50.620;3.400;2023-03-01T03:18:43;54.50;;;46.97;;
46753;SDS011;32500;50.620;3.400;2023-03-01T03:21:09;54.33;;;47.40;;
46753;SDS011;32500;50.620;3.400;2023-03-01T03:23:36;54.37;;;47.03;;
46753;SDS011;32500;50.620;3.400;2023-03-01T03:26:02;55.83;;;47.87;;
46753;SDS011;32500;50.620;3.400;2023-03-01T03:28:29;55.00;;;47.20;;
46753;SDS011;32500;50.620;3.400;2023-03-01T03:30:59;54.90;;;46.97;;
46753;SDS011;32500;50.620;3.400;2023-03-01T03:33:31;54.80;;;46.60;;
46753;SDS011;32500;50.620;3.400;2023-03-01T03:35:57;56.15;;;47.20;;
46753;SDS011;32500;50.620;3.400;2023-03-01T03:38:23;55.87;;;47.20;;
46753;SDS011;32500;50.620;3.400;2023-03-01T03:40:58;56.13;;;46.90;;
46753;SDS011;32500;50.620;3.400;2023-03-01T03:43:27;56.87;;;47.30;;
46753;SDS011;32500;50.620;3.400;2023-03-01T03:45:53;57.30;;;47.50;;
46753;SDS011;32500;50.620;3.400;2023-03-01T03:48:19;57.00;;;46.87;;
46753;SDS011;32500;50.620;3.400;2023-03-01T03:50:55;56.70;;;47.53;;
46753;SDS011;32500;50.620;3.400;2023-03-01T03:53:21;57.22;;;47.63;;
46753;SDS011;32500;50.620;3.400;2023-03-01T03:55:49;56.80;;;47.67;;
46753;SDS011;32500;50.620;3.400;2023-03-01T03:58:14;56.08;;;46.67;;
46753;SDS011;32500;50.620;3.400;2023-03-01T04:00:42;56.47;;;47.03;;
46753;SDS011;32500;50.620;3.400;2023-03-01T04:03:09;57.28;;;47.53;;
46753;SDS011;32500;50.620;3.400;2023-03-01T04:05:36;56.65;;;47.28;;
46753;SDS011;32500;50.620;3.400;2023-03-01T04:08:02;56.72;;;47.67;;
46753;SDS011;32500;50.620;3.400;2023-03-01T04:10:33;57.15;;;47.45;;
46753;SDS011;32500;50.620;3.400;2023-03-01T04:13:04;56.92;;;47.65;;
46753;SDS011;32500;50.620;3.400;2023-03-01T04:15:30;56.63;;;47.35;;
46753;SDS011;32500;50.620;3.400;2023-03-01T04:17:58;57.03;;;47.97;;
46753;SDS011;32500;50.620;3.400;2023-03-01T04:20:25;57.42;;;47.55;;
46753;SDS011;32500;50.620;3.400;2023-03-01T04:23:25;55.17;;;46.95;;
46753;SDS011;32500;50.620;3.400;2023-03-01T04:25:49;56.90;;;47.28;;
46753;SDS011;32500;50.620;3.400;2023-03-01T04:28:19;56.25;;;47.45;;
46753;SDS011;32500;50.620;3.400;2023-03-01T04:30:47;57.38;;;47.40;;
46753;SDS011;32500;50.620;3.400;2023-03-01T04:33:13;57.78;;;48.05;;
46753;SDS011;32500;50.620;3.400;2023-03-01T04:35:39;56.65;;;47.72;;
46753;SDS011;32500;50.620;3.400;2023-03-01T04:38:05;57.15;;;47.58;;
46753;SDS011;32500;50.620;3.400;2023-03-01T04:40:32;56.38;;;47.88;;
46753;SDS011;32500;50.620;3.400;2023-03-01T04:42:58;56.17;;;47.50;;
46753;SDS011;32500;50.620;3.400;2023-03-01T04:45:23;57.03;;;48.17;;
46753;SDS011;32500;50.620;3.400;2023-03-01T04:47:49;56.00;;;47.30;;
46753;SDS011;32500;50.620;3.400;2023-03-01T04:50:17;56.35;;;47.90;;
46753;SDS011;32500;50.620;3.400;2023-03-01T04:52:45;57.90;;;48.58;;
46753;SDS011;32500;50.620;3.400;2023-03-01T04:55:11;57.80;;;47.78;;
46753;SDS011;32500;50.620;3.400;2023-03-01T04:57:37;56.23;;;47.90;;
46753;SDS011;32500;50.620;3.400;2023-03-01T05:00:04;55.90;;;47.50;;
46753;SDS011;32500;50.620;3.400;2023-03-01T05:02:45;58.30;;;48.75;;
46753;SDS011;32500;50.620;3.400;2023-03-01T05:05:18;57.92;;;48.67;;
46753;SDS011;32500;50.620;3.400;2023-03-01T05:07:45;56.38;;;48.13;;
46753;SDS011;32500;50.620;3.400;2023-03-01T05:10:11;56.72;;;47.85;;
46753;SDS011;32500;50.620;3.400;2023-03-01T05:12:36;57.50;;;48.72;;
46753;SDS011;32500;50.620;3.400;2023-03-01T05:15:03;58.13;;;48.47;;
46753;SDS011;32500;50.620;3.400;2023-03-01T05:17:32;58.67;;;48.83;;
46753;SDS011;32500;50.620;3.400;2023-03-01T05:19:59;57.35;;;48.45;;
46753;SDS011;32500;50.620;3.400;2023-03-01T05:22:25;58.17;;;48.55;;
46753;SDS011;32500;50.620;3.400;2023-03-01T05:24:51;58.33;;;48.38;;
46753;SDS011;32500;50.620;3.400;2023-03-01T05:27:19;56.47;;;47.73;;
46753;SDS011;32500;50.620;3.400;2023-03-01T05:29:47;58.97;;;48.05;;
46753;SDS011;32500;50.620;3.400;2023-03-01T05:32:13;56.23;;;47.73;;
46753;SDS011;32500;50.620;3.400;2023-03-01T05:34:40;57.70;;;48.30;;
46753;SDS011;32500;50.620;3.400;2023-03-01T05:37:07;58.20;;;48.73;;
46753;SDS011;32500;50.620;3.400;2023-03-01T05:39:33;57.63;;;47.75;;
46753;SDS011;32500;50.620;3.400;2023-03-01T05:41:59;56.63;;;47.80;;
46753;SDS011;32500;50.620;3.400;2023-03-01T05:44:26;55.63;;;47.60;;
46753;SDS011;32500;50.620;3.400;2023-03-01T05:46:53;56.77;;;48.53;;
46753;SDS011;32500;50.620;3.400;2023-03-01T05:49:19;56.43;;;47.87;;
46753;SDS011;32500;50.620;3.400;2023-03-01T05:51:49;57.27;;;48.60;;
46753;SDS011;32500;50.620;3.400;2023-03-01T05:54:17;56.67;;;48.47;;
46753;SDS011;32500;50.620;3.400;2023-03-01T05:56:44;56.43;;;48.33;;
46753;SDS011;32500;50.620;3.400;2023-03-01T05:59:10;57.03;;;48.40;;
46753;SDS011;32500;50.620;3.400;2023-03-01T06:01:36;58.40;;;48.87;;
46753;SDS011;32500;50.620;3.400;2023-03-01T06:04:02;56.23;;;48.30;;
46753;SDS011;32500;50.620;3.400;2023-03-01T06:06:29;57.33;;;48.67;;
46753;SDS011;32500;50.620;3.400;2023-03-01T06:08:58;58.07;;;48.97;;
46753;SDS011;32500;50.620;3.400;2023-03-01T06:11:23;58.00;;;48.83;;
46753;SDS011;32500;50.620;3.400;2023-03-01T06:13:49;56.93;;;47.90;;
46753;SDS011;32500;50.620;3.400;2023-03-01T06:16:15;58.33;;;48.90;;
46753;SDS011;32500;50.620;3.400;2023-03-01T06:18:41;58.93;;;48.00;;
46753;SDS011;32500;50.620;3.400;2023-03-01T06:21:07;56.53;;;48.20;;
46753;SDS011;32500;50.620;3.400;2023-03-01T06:23:33;56.20;;;48.77;;
46753;SDS011;32500;50.620;3.400;2023-03-01T06:25:59;56.67;;;47.80;;
46753;SDS011;32500;50.620;3.400;2023-03-01T06:28:25;55.43;;;47.97;;
46753;SDS011;32500;50.620;3.400;2023-03-01T06:30:51;58.97;;;48.30;;
46753;SDS011;32500;50.620;3.400;2023-03-01T06:33:17;59.97;;;48.47;;
46753;SDS011;32500;50.620;3.400;2023-03-01T06:35:45;57.25;;;49.00;;
46753;SDS011;32500;50.620;3.400;2023-03-01T06:38:11;57.73;;;48.77;;
46753;SDS011;32500;50.620;3.400;2023-03-01T06:40:39;56.87;;;48.70;;
46753;SDS011;32500;50.620;3.400;2023-03-01T06:43:06;61.67;;;48.30;;
46753;SDS011;32500;50.620;3.400;2023-03-01T06:45:32;64.73;;;49.90;;
46753;SDS011;32500;50.620;3.400;2023-03-01T06:48:04;58.77;;;48.90;;
46753;SDS011;32500;50.620;3.400;2023-03-01T06:50:31;58.58;;;48.60;;
46753;SDS011;32500;50.620;3.400;2023-03-01T06:52:57;58.73;;;49.50;;
46753;SDS011;32500;50.620;3.400;2023-03-01T06:55:24;62.03;;;49.37;;
46753;SDS011;32500;50.620;3.400;2023-03-01T06:57:56;60.00;;;49.53;;
46753;SDS011;32500;50.620;3.400;2023-03-01T07:00:26;60.30;;;49.92;;
46753;SDS011;32500;50.620;3.400;2023-03-01T07:02:53;57.45;;;48.53;;
46753;SDS011;32500;50.620;3.400;2023-03-01T07:05:18;57.50;;;48.30;;
46753;SDS011;32500;50.620;3.400;2023-03-01T07:07:45;58.65;;;48.30;;
46753;SDS011;32500;50.620;3.400;2023-03-01T07:10:11;58.08;;;49.13;;
46753;SDS011;32500;50.620;3.400;2023-03-01T07:12:37;58.33;;;48.75;;
46753;SDS011;32500;50.620;3.400;2023-03-01T07:15:03;57.67;;;48.65;;
46753;SDS011;32500;50.620;3.400;2023-03-01T07:17:29;59.40;;;48.38;;
46753;SDS011;32500;50.620;3.400;2023-03-01T07:19:55;59.15;;;48.67;;
46753;SDS011;32500;50.620;3.400;2023-03-01T07:22:21;59.45;;;48.70;;
46753;SDS011;32500;50.620;3.400;2023-03-01T07:24:47;60.25;;;49.40;;
46753;SDS011;32500;50.620;3.400;2023-03-01T07:27:13;59.53;;;48.22;;
46753;SDS011;32500;50.620;3.400;2023-03-01T07:31:18;57.95;;;48.50;;
46753;SDS011;32500;50.620;3.400;2023-03-01T07:34:16;58.35;;;48.58;;
46753;SDS011;32500;50.620;3.400;2023-03-01T07:36:41;58.92;;;48.35;;
46753;SDS011;32500;50.620;3.400;2023-03-01T07:39:09;58.78;;;48.50;;
46753;SDS011;32500;50.620;3.400;2023-03-01T07:41:35;57.90;;;48.20;;
46753;SDS011;32500;50.620;3.400;2023-03-01T07:44:01;63.08;;;49.20;;
46753;SDS011;32500;50.620;3.400;2023-03-01T07:46:26;57.78;;;48.35;;
46753;SDS011;32500;50.620;3.400;2023-03-01T07:48:52;60.33;;;49.08;;
46753;SDS011;32500;50.620;3.400;2023-03-01T07:51:18;59.53;;;48.40;;
46753;SDS011;32500;50.620;3.400;2023-03-01T07:53:45;59.15;;;48.45;;
46753;SDS011;32500;50.620;3.400;2023-03-01T07:56:40;61.83;;;50.10;;
46753;SDS011;32500;50.620;3.400;2023-03-01T07:59:06;61.60;;;49.17;;
46753;SDS011;32500;50.620;3.400;2023-03-01T08:01:32;60.80;;;48.80;;
46753;SDS011;32500;50.620;3.400;2023-03-01T08:03:57;58.50;;;47.95;;
46753;SDS011;32500;50.620;3.400;2023-03-01T08:06:23;59.15;;;47.95;;
46753;SDS011;32500;50.620;3.400;2023-03-01T08:08:49;59.90;;;48.17;;
46753;SDS011;32500;50.620;3.400;2023-03-01T08:11:14;61.17;;;49.33;;
46753;SDS011;32500;50.620;3.400;2023-03-01T08:13:40;59.55;;;48.75;;
46753;SDS011;32500;50.620;3.400;2023-03-01T08:16:08;61.72;;;49.28;;
46753;SDS011;32500;50.620;3.400;2023-03-01T08:18:36;59.30;;;47.85;;
46753;SDS011;32500;50.620;3.400;2023-03-01T08:21:10;59.72;;;48.92;;
46753;SDS011;32500;50.620;3.400;2023-03-01T08:23:37;60.00;;;48.35;;
46753;SDS011;32500;50.620;3.400;2023-03-01T08:26:07;61.72;;;49.63;;
46753;SDS011;32500;50.620;3.400;2023-03-01T08:33:10;59.17;;;48.25;;
46753;SDS011;32500;50.620;3.400;2023-03-01T08:37:02;60.78;;;48.95;;
46753;SDS011;32500;50.620;3.400;2023-03-01T08:39:28;59.20;;;48.03;;
46753;SDS011;32500;50.620;3.400;2023-03-01T08:41:54;61.58;;;48.95;;
46753;SDS011;32500;50.620;3.400;2023-03-01T08:44:19;61.97;;;48.90;;
46753;SDS011;32500;50.620;3.400;2023-03-01T08:46:48;58.88;;;47.90;;
46753;SDS011;32500;50.620;3.400;2023-03-01T08:49:17;59.88;;;48.10;;
46753;SDS011;32500;50.620;3.400;2023-03-01T08:51:44;59.22;;;48.25;;
46753;SDS011;32500;50.620;3.400;2023-03-01T08:54:11;60.00;;;48.03;;
46753;SDS011;32500;50.620;3.400;2023-03-01T08:59:00;60.42;;;47.95;;
46753;SDS011;32500;50.620;3.400;2023-03-01T09:01:26;60.35;;;48.40;;
46753;SDS011;32500;50.620;3.400;2023-03-01T09:03:52;63.72;;;49.20;;
46753;SDS011;32500;50.620;3.400;2023-03-01T09:06:18;63.55;;;48.45;;
46753;SDS011;32500;50.620;3.400;2023-03-01T09:08:45;62.75;;;48.80;;
46753;SDS011;32500;50.620;3.400;2023-03-01T09:11:13;59.38;;;48.03;;
46753;SDS011;32500;50.620;3.400;2023-03-01T09:13:41;59.55;;;48.60;;
46753;SDS011;32500;50.620;3.400;2023-03-01T09:16:08;61.58;;;48.72;;
46753;SDS011;32500;50.620;3.400;2023-03-01T09:18:34;63.92;;;48.65;;
46753;SDS011;32500;50.620;3.400;2023-03-01T09:21:04;61.83;;;48.67;;
46753;SDS011;32500;50.620;3.400;2023-03-01T09:23:35;59.78;;;48.75;;
46753;SDS011;32500;50.620;3.400;2023-03-01T09:26:03;59.58;;;48.75;;
46753;SDS011;32500;50.620;3.400;2023-03-01T09:28:30;58.92;;;47.90;;
46753;SDS011;32500;50.620;3.400;2023-03-01T09:30:59;59.65;;;48.40;;
46753;SDS011;32500;50.620;3.400;2023-03-01T09:33:26;60.53;;;48.35;;
46753;SDS011;32500;50.620;3.400;2023-03-01T09:35:56;59.30;;;48.00;;
46753;SDS011;32500;50.620;3.400;2023-03-01T09:38:23;60.00;;;47.50;;
46753;SDS011;32500;50.620;3.400;2023-03-01T09:40:49;61.45;;;48.00;;
46753;SDS011;32500;50.620;3.400;2023-03-01T09:45:50;60.22;;;48.15;;
46753;SDS011;32500;50.620;3.400;2023-03-01T09:48:21;62.17;;;48.58;;
46753;SDS011;32500;50.620;3.400;2023-03-01T09:50:50;62.15;;;48.08;;
46753;SDS011;32500;50.620;3.400;2023-03-01T09:53:18;61.35;;;48.58;;
46753;SDS011;32500;50.620;3.400;2023-03-01T09:55:58;61.30;;;48.70;;
46753;SDS011;32500;50.620;3.400;2023-03-01T10:06:58;60.80;;;48.75;;
46753;SDS011;32500;50.620;3.400;2023-03-01T10:09:47;62.00;;;48.33;;
46753;SDS011;32500;50.620;3.400;2023-03-01T10:12:22;62.45;;;48.45;;
46753;SDS011;32500;50.620;3.400;2023-03-01T10:15:00;62.63;;;48.58;;
46753;SDS011;32500;50.620;3.400;2023-03-01T10:20:16;71.10;;;49.97;;
46753;SDS011;32500;50.620;3.400;2023-03-01T10:22:44;69.85;;;49.15;;
46753;SDS011;32500;50.620;3.400;2023-03-01T10:25:15;65.38;;;49.55;;
46753;SDS011;32500;50.620;3.400;2023-03-01T10:27:46;68.35;;;49.50;;
46753;SDS011;32500;50.620;3.400;2023-03-01T10:30:21;65.22;;;49.47;;
46753;SDS011;32500;50.620;3.400;2023-03-01T10:33:20;69.47;;;49.45;;
46753;SDS011;32500;50.620;3.400;2023-03-01T10:35:49;68.07;;;49.25;;
46753;SDS011;32500;50.620;3.400;2023-03-01T10:38:15;67.07;;;49.53;;
46753;SDS011;32500;50.620;3.400;2023-03-01T10:40:55;64.97;;;49.80;;
46753;SDS011;32500;50.620;3.400;2023-03-01T10:43:25;70.28;;;49.90;;
46753;SDS011;32500;50.620;3.400;2023-03-01T10:45:52;67.45;;;49.55;;
46753;SDS011;32500;50.620;3.400;2023-03-01T10:48:25;65.28;;;49.28;;
46753;SDS011;32500;50.620;3.400;2023-03-01T10:53:25;65.10;;;49.17;;
46753;SDS011;32500;50.620;3.400;2023-03-01T10:56:03;67.68;;;50.08;;
46753;SDS011;32500;50.620;3.400;2023-03-01T10:58:41;66.38;;;49.53;;
46753;SDS011;32500;50.620;3.400;2023-03-01T11:01:32;67.57;;;49.33;;
46753;SDS011;32500;50.620;3.400;2023-03-01T11:06:32;65.28;;;49.03;;
46753;SDS011;32500;50.620;3.400;2023-03-01T11:11:46;67.15;;;49.20;;
46753;SDS011;32500;50.620;3.400;2023-03-01T11:14:23;64.82;;;48.65;;
46753;SDS011;32500;50.620;3.400;2023-03-01T11:20:02;67.93;;;49.30;;
46753;SDS011;32500;50.620;3.400;2023-03-01T11:22:47;68.03;;;49.60;;
46753;SDS011;32500;50.620;3.400;2023-03-01T11:25:23;68.28;;;49.53;;
46753;SDS011;32500;50.620;3.400;2023-03-01T11:27:55;65.72;;;49.80;;
46753;SDS011;32500;50.620;3.400;2023-03-01T11:36:11;66.25;;;49.25;;
46753;SDS011;32500;50.620;3.400;2023-03-01T11:38:42;65.80;;;49.22;;
46753;SDS011;32500;50.620;3.400;2023-03-01T11:41:12;66.00;;;49.60;;
46753;SDS011;32500;50.620;3.400;2023-03-01T11:43:57;66.70;;;49.53;;
46753;SDS011;32500;50.620;3.400;2023-03-01T12:02:40;65.80;;;49.00;;
46753;SDS011;32500;50.620;3.400;2023-03-01T12:05:20;64.38;;;49.22;;
46753;SDS011;32500;50.620;3.400;2023-03-01T12:08:00;66.55;;;49.40;;
46753;SDS011;32500;50.620;3.400;2023-03-01T12:13:20;67.43;;;49.33;;
46753;SDS011;32500;50.620;3.400;2023-03-01T12:21:53;64.85;;;49.08;;
46753;SDS011;32500;50.620;3.400;2023-03-01T12:32:43;65.55;;;49.38;;
46753;SDS011;32500;50.620;3.400;2023-03-01T12:37:56;65.63;;;48.90;;
46753;SDS011;32500;50.620;3.400;2023-03-01T12:43:20;63.28;;;49.42;;
46753;SDS011;32500;50.620;3.400;2023-03-01T12:48:48;69.70;;;48.67;;
46753;SDS011;32500;50.620;3.400;2023-03-01T12:51:20;63.28;;;49.22;;
46753;SDS011;32500;50.620;3.400;2023-03-01T12:53:50;63.60;;;48.65;;
46753;SDS011;32500;50.620;3.400;2023-03-01T12:56:36;63.60;;;48.67;;
46753;SDS011;32500;50.620;3.400;2023-03-01T13:05:01;68.75;;;48.90;;
46753;SDS011;32500;50.620;3.400;2023-03-01T13:07:49;65.72;;;49.35;;
46753;SDS011;32500;50.620;3.400;2023-03-01T13:11:07;66.10;;;49.72;;
46753;SDS011;32500;50.620;3.400;2023-03-01T13:13:20;64.80;;;49.47;;
46753;SDS011;32500;50.620;3.400;2023-03-01T13:15:47;66.85;;;49.33;;
46753;SDS011;32500;50.620;3.400;2023-03-01T13:20:45;69.50;;;49.58;;
46753;SDS011;32500;50.620;3.400;2023-03-01T13:23:23;64.90;;;49.42;;
46753;SDS011;32500;50.620;3.400;2023-03-01T13:26:08;68.03;;;49.40;;
46753;SDS011;32500;50.620;3.400;2023-03-01T13:31:08;67.07;;;49.10;;
46753;SDS011;32500;50.620;3.400;2023-03-01T13:33:44;67.07;;;49.13;;
46753;SDS011;32500;50.620;3.400;2023-03-01T13:36:10;66.03;;;49.67;;
46753;SDS011;32500;50.620;3.400;2023-03-01T13:38:58;66.10;;;49.25;;
46753;SDS011;32500;50.620;3.400;2023-03-01T13:44:13;63.38;;;48.65;;
46753;SDS011;32500;50.620;3.400;2023-03-01T13:47:04;64.38;;;49.28;;
46753;SDS011;32500;50.620;3.400;2023-03-01T13:50:00;66.80;;;49.10;;
46753;SDS011;32500;50.620;3.400;2023-03-01T13:54:54;68.20;;;49.28;;
46753;SDS011;32500;50.620;3.400;2023-03-01T13:57:22;68.30;;;49.40;;
46753;SDS011;32500;50.620;3.400;2023-03-01T13:59:51;66.32;;;49.95;;
46753;SDS011;32500;50.620;3.400;2023-03-01T14:02:16;68.15;;;49.63;;
46753;SDS011;32500;50.620;3.400;2023-03-01T14:04:42;65.78;;;50.10;;
46753;SDS011;32500;50.620;3.400;2023-03-01T14:07:11;68.70;;;49.40;;
46753;SDS011;32500;50.620;3.400;2023-03-01T14:09:45;65.88;;;49.05;;
46753;SDS011;32500;50.620;3.400;2023-03-01T14:20:38;67.10;;;49.53;;
46753;SDS011;32500;50.620;3.400;2023-03-01T14:23:10;65.85;;;49.72;;
46753;SDS011;32500;50.620;3.400;2023-03-01T14:25:39;65.53;;;49.58;;
46753;SDS011;32500;50.620;3.400;2023-03-01T14:28:28;65.65;;;49.45;;
46753;SDS011;32500;50.620;3.400;2023-03-01T14:30:59;66.80;;;49.05;;
46753;SDS011;32500;50.620;3.400;2023-03-01T14:33:35;68.35;;;49.38;;
46753;SDS011;32500;50.620;3.400;2023-03-01T14:38:33;65.72;;;49.17;;
46753;SDS011;32500;50.620;3.400;2023-03-01T14:41:08;68.22;;;49.10;;
46753;SDS011;32500;50.620;3.400;2023-03-01T14:43:52;65.47;;;49.80;;
46753;SDS011;32500;50.620;3.400;2023-03-01T14:46:26;64.68;;;49.00;;
46753;SDS011;32500;50.620;3.400;2023-03-01T14:48:56;67.78;;;48.85;;
46753;SDS011;32500;50.620;3.400;2023-03-01T14:51:26;66.45;;;49.03;;
46753;SDS011;32500;50.620;3.400;2023-03-01T14:53:52;67.30;;;49.08;;
46753;SDS011;32500;50.620;3.400;2023-03-01T14:56:18;65.00;;;49.22;;
46753;SDS011;32500;50.620;3.400;2023-03-01T14:58:44;68.07;;;49.28;;
46753;SDS011;32500;50.620;3.400;2023-03-01T15:01:16;64.03;;;49.00;;
46753;SDS011;32500;50.620;3.400;2023-03-01T15:03:46;70.00;;;49.03;;
46753;SDS011;32500;50.620;3.400;2023-03-01T15:06:14;63.75;;;48.92;;
46753;SDS011;32500;50.620;3.400;2023-03-01T15:08:46;64.72;;;49.15;;
46753;SDS011;32500;50.620;3.400;2023-03-01T15:16:53;65.38;;;49.00;;
46753;SDS011;32500;50.620;3.400;2023-03-01T15:19:19;68.20;;;49.80;;
46753;SDS011;32500;50.620;3.400;2023-03-01T15:21:53;63.92;;;48.50;;
46753;SDS011;32500;50.620;3.400;2023-03-01T15:24:22;66.70;;;49.28;;
46753;SDS011;32500;50.620;3.400;2023-03-01T15:26:51;66.60;;;48.72;;
46753;SDS011;32500;50.620;3.400;2023-03-01T15:29:27;67.18;;;49.35;;
46753;SDS011;32500;50.620;3.400;2023-03-01T15:34:37;66.60;;;49.45;;
46753;SDS011;32500;50.620;3.400;2023-03-01T15:37:04;67.20;;;49.50;;
46753;SDS011;32500;50.620;3.400;2023-03-01T15:39:56;67.68;;;49.47;;
46753;SDS011;32500;50.620;3.400;2023-03-01T15:47:34;66.95;;;49.63;;
46753;SDS011;32500;50.620;3.400;2023-03-01T15:50:01;66.07;;;49.05;;
46753;SDS011;32500;50.620;3.400;2023-03-01T15:52:28;68.18;;;49.58;;
46753;SDS011;32500;50.620;3.400;2023-03-01T15:55:19;66.63;;;49.78;;
46753;SDS011;32500;50.620;3.400;2023-03-01T15:57:47;69.25;;;49.35;;
46753;SDS011;32500;50.620;3.400;2023-03-01T16:00:14;68.45;;;49.63;;
46753;SDS011;32500;50.620;3.400;2023-03-01T16:02:41;68.78;;;49.20;;
46753;SDS011;32500;50.620;3.400;2023-03-01T16:07:53;67.20;;;49.55;;
46753;SDS011;32500;50.620;3.400;2023-03-01T16:10:19;69.00;;;49.65;;
46753;SDS011;32500;50.620;3.400;2023-03-01T16:12:46;67.20;;;49.00;;
46753;SDS011;32500;50.620;3.400;2023-03-01T16:15:13;67.13;;;49.75;;
46753;SDS011;32500;50.620;3.400;2023-03-01T16:17:43;64.57;;;48.78;;
46753;SDS011;32500;50.620;3.400;2023-03-01T16:20:09;65.78;;;49.30;;
46753;SDS011;32500;50.620;3.400;2023-03-01T16:22:35;67.07;;;49.58;;
46753;SDS011;32500;50.620;3.400;2023-03-01T16:25:01;65.65;;;48.85;;
46753;SDS011;32500;50.620;3.400;2023-03-01T16:27:27;64.97;;;49.05;;
46753;SDS011;32500;50.620;3.400;2023-03-01T16:29:53;68.03;;;49.17;;
46753;SDS011;32500;50.620;3.400;2023-03-01T16:32:19;65.57;;;48.90;;
46753;SDS011;32500;50.620;3.400;2023-03-01T16:34:44;66.00;;;49.05;;
46753;SDS011;32500;50.620;3.400;2023-03-01T16:37:14;68.13;;;48.80;;
46753;SDS011;32500;50.620;3.400;2023-03-01T16:39:40;69.57;;;49.05;;
46753;SDS011;32500;50.620;3.400;2023-03-01T16:42:05;69.00;;;49.00;;
46753;SDS011;32500;50.620;3.400;2023-03-01T16:44:31;66.50;;;49.00;;
46753;SDS011;32500;50.620;3.400;2023-03-01T16:46:57;65.93;;;49.35;;
46753;SDS011;32500;50.620;3.400;2023-03-01T16:49:22;65.30;;;48.75;;
46753;SDS011;32500;50.620;3.400;2023-03-01T16:51:48;66.50;;;48.75;;
46753;SDS011;32500;50.620;3.400;2023-03-01T16:54:14;66.93;;;48.67;;
46753;SDS011;32500;50.620;3.400;2023-03-01T16:56:39;65.57;;;48.75;;